sensor_id;sensor_type;location;lat;lon;timestamp;P1;durP1;ratioP1;P2;durP2;ratioP2
64031;SDS011;50278;47.796;11.968;2022-07-10T00:02:08;1.27;;;0.82;;
64031;SDS011;50278;47.796;11.968;2022-07-10T00:04:34;1.85;;;0.90;;
64031;SDS011;50278;47.796;11.968;2022-07-10T00:06:59;1.58;;;0.60;;
64031;SDS011;50278;47.796;11.968;2022-07-10T00:09:27;1.52;;;0.93;;
64031;SDS011;50278;47.796;11.968;2022-07-10T00:11:53;1.67;;;1.02;;
64031;SDS011;50278;47.796;11.968;2022-07-10T00:14:19;1.20;;;0.80;;
64031;SDS011;50278;47.796;11.968;2022-07-10T00:16:45;2.03;;;1.08;;
64031;SDS011;50278;47.796;11.968;2022-07-10T00:19:11;2.50;;;0.85;;
64031;SDS011;50278;47.796;11.968;2022-07-10T00:21:36;2.10;;;1.02;;
64031;SDS011;50278;47.796;11.968;2022-07-10T00:24:02;1.73;;;1.00;;
64031;SDS011;50278;47.796;11.968;2022-07-10T00:26:27;3.60;;;1.00;;
64031;SDS011;50278;47.796;11.968;2022-07-10T00:28:53;1.65;;;0.82;;
64031;SDS011;50278;47.796;11.968;2022-07-10T00:31:20;4.82;;;1.00;;
64031;SDS011;50278;47.796;11.968;2022-07-10T00:33:45;3.05;;;1.13;;
64031;SDS011;50278;47.796;11.968;2022-07-10T00:36:11;1.20;;;0.88;;
64031;SDS011;50278;47.796;11.968;2022-07-10T00:38:37;1.13;;;0.80;;
64031;SDS011;50278;47.796;11.968;2022-07-10T00:41:02;1.67;;;0.80;;
64031;SDS011;50278;47.796;11.968;2022-07-10T00:43:28;1.50;;;0.75;;
64031;SDS011;50278;47.796;11.968;2022-07-10T00:45:53;4.22;;;1.52;;
64031;SDS011;50278;47.796;11.968;2022-07-10T00:48:19;1.10;;;1.00;;
64031;SDS011;50278;47.796;11.968;2022-07-10T00:50:45;1.60;;;0.98;;
64031;SDS011;50278;47.796;11.968;2022-07-10T00:53:11;1.98;;;0.90;;
64031;SDS011;50278;47.796;11.968;2022-07-10T00:55:38;1.95;;;1.02;;
64031;SDS011;50278;47.796;11.968;2022-07-10T00:58:06;3.55;;;1.10;;
64031;SDS011;50278;47.796;11.968;2022-07-10T01:00:32;1.95;;;1.23;;
64031;SDS011;50278;47.796;11.968;2022-07-10T01:03:00;3.78;;;0.90;;
64031;SDS011;50278;47.796;11.968;2022-07-10T01:05:25;4.07;;;1.20;;
64031;SDS011;50278;47.796;11.968;2022-07-10T01:07:51;1.73;;;1.08;;
64031;SDS011;50278;47.796;11.968;2022-07-10T01:10:16;2.30;;;1.10;;
64031;SDS011;50278;47.796;11.968;2022-07-10T01:12:42;1.13;;;0.90;;
64031;SDS011;50278;47.796;11.968;2022-07-10T01:15:08;1.70;;;1.20;;
64031;SDS011;50278;47.796;11.968;2022-07-10T01:17:34;2.17;;;1.10;;
64031;SDS011;50278;47.796;11.968;2022-07-10T01:20:03;2.45;;;1.13;;
64031;SDS011;50278;47.796;11.968;2022-07-10T01:22:30;1.85;;;0.95;;
64031;SDS011;50278;47.796;11.968;2022-07-10T01:24:56;2.83;;;1.05;;
64031;SDS011;50278;47.796;11.968;2022-07-10T01:27:22;2.55;;;0.95;;
64031;SDS011;50278;47.796;11.968;2022-07-10T01:29:47;1.92;;;1.17;;
64031;SDS011;50278;47.796;11.968;2022-07-10T01:32:14;2.72;;;1.17;;
64031;SDS011;50278;47.796;11.968;2022-07-10T01:34:39;3.38;;;1.38;;
64031;SDS011;50278;47.796;11.968;2022-07-10T01:37:05;4.82;;;1.90;;
64031;SDS011;50278;47.796;11.968;2022-07-10T01:39:30;2.65;;;1.40;;
64031;SDS011;50278;47.796;11.968;2022-07-10T01:41:56;2.67;;;1.45;;
64031;SDS011;50278;47.796;11.968;2022-07-10T01:44:21;4.63;;;1.80;;
64031;SDS011;50278;47.796;11.968;2022-07-10T01:46:46;4.32;;;1.88;;
64031;SDS011;50278;47.796;11.968;2022-07-10T01:49:14;5.28;;;2.38;;
64031;SDS011;50278;47.796;11.968;2022-07-10T01:51:40;3.17;;;1.95;;
64031;SDS011;50278;47.796;11.968;2022-07-10T01:54:05;4.70;;;2.65;;
64031;SDS011;50278;47.796;11.968;2022-07-10T01:56:31;3.38;;;2.50;;
64031;SDS011;50278;47.796;11.968;2022-07-10T01:58:57;5.15;;;2.65;;
64031;SDS011;50278;47.796;11.968;2022-07-10T02:01:24;3.80;;;2.90;;
64031;SDS011;50278;47.796;11.968;2022-07-10T02:03:50;3.17;;;2.67;;
64031;SDS011;50278;47.796;11.968;2022-07-10T02:06:34;5.80;;;3.10;;
64031;SDS011;50278;47.796;11.968;2022-07-10T02:08:59;4.50;;;3.70;;
64031;SDS011;50278;47.796;11.968;2022-07-10T02:11:25;5.65;;;3.22;;
64031;SDS011;50278;47.796;11.968;2022-07-10T02:13:53;3.65;;;3.35;;
64031;SDS011;50278;47.796;11.968;2022-07-10T02:16:18;4.45;;;3.50;;
64031;SDS011;50278;47.796;11.968;2022-07-10T02:18:43;3.75;;;3.40;;
64031;SDS011;50278;47.796;11.968;2022-07-10T02:21:09;4.05;;;3.42;;
64031;SDS011;50278;47.796;11.968;2022-07-10T02:23:34;3.90;;;3.60;;
64031;SDS011;50278;47.796;11.968;2022-07-10T02:26:00;3.97;;;3.67;;
64031;SDS011;50278;47.796;11.968;2022-07-10T02:28:26;6.13;;;4.15;;
64031;SDS011;50278;47.796;11.968;2022-07-10T02:30:52;5.85;;;3.95;;
64031;SDS011;50278;47.796;11.968;2022-07-10T02:33:18;6.07;;;3.95;;
64031;SDS011;50278;47.796;11.968;2022-07-10T02:35:44;4.45;;;4.05;;
64031;SDS011;50278;47.796;11.968;2022-07-10T02:38:09;5.15;;;4.03;;
64031;SDS011;50278;47.796;11.968;2022-07-10T02:40:35;4.00;;;3.70;;
64031;SDS011;50278;47.796;11.968;2022-07-10T02:43:00;4.22;;;3.83;;
64031;SDS011;50278;47.796;11.968;2022-07-10T02:45:25;4.35;;;3.95;;
64031;SDS011;50278;47.796;11.968;2022-07-10T02:47:51;4.65;;;4.00;;
64031;SDS011;50278;47.796;11.968;2022-07-10T02:50:16;4.68;;;4.00;;
64031;SDS011;50278;47.796;11.968;2022-07-10T02:52:42;4.03;;;3.70;;
64031;SDS011;50278;47.796;11.968;2022-07-10T02:55:07;4.80;;;4.40;;
64031;SDS011;50278;47.796;11.968;2022-07-10T02:57:33;4.93;;;4.18;;
64031;SDS011;50278;47.796;11.968;2022-07-10T02:59:58;5.53;;;4.65;;
64031;SDS011;50278;47.796;11.968;2022-07-10T03:02:24;5.82;;;5.22;;
64031;SDS011;50278;47.796;11.968;2022-07-10T03:04:49;6.35;;;5.47;;
64031;SDS011;50278;47.796;11.968;2022-07-10T03:07:15;8.40;;;6.00;;
64031;SDS011;50278;47.796;11.968;2022-07-10T03:09:40;8.77;;;5.90;;
64031;SDS011;50278;47.796;11.968;2022-07-10T03:12:06;6.40;;;5.90;;
64031;SDS011;50278;47.796;11.968;2022-07-10T03:14:31;6.57;;;5.55;;
64031;SDS011;50278;47.796;11.968;2022-07-10T03:16:57;6.80;;;5.93;;
64031;SDS011;50278;47.796;11.968;2022-07-10T03:19:23;6.50;;;5.80;;
64031;SDS011;50278;47.796;11.968;2022-07-10T03:21:48;6.68;;;6.13;;
64031;SDS011;50278;47.796;11.968;2022-07-10T03:24:14;7.15;;;5.53;;
64031;SDS011;50278;47.796;11.968;2022-07-10T03:26:39;8.40;;;5.85;;
64031;SDS011;50278;47.796;11.968;2022-07-10T03:29:04;6.80;;;6.20;;
64031;SDS011;50278;47.796;11.968;2022-07-10T03:31:30;7.63;;;6.50;;
64031;SDS011;50278;47.796;11.968;2022-07-10T03:33:55;5.90;;;5.35;;
64031;SDS011;50278;47.796;11.968;2022-07-10T03:36:21;6.68;;;6.07;;
64031;SDS011;50278;47.796;11.968;2022-07-10T03:38:46;6.93;;;6.25;;
64031;SDS011;50278;47.796;11.968;2022-07-10T03:41:12;6.25;;;5.60;;
64031;SDS011;50278;47.796;11.968;2022-07-10T03:43:38;6.78;;;6.18;;
64031;SDS011;50278;47.796;11.968;2022-07-10T03:46:04;6.78;;;6.18;;
64031;SDS011;50278;47.796;11.968;2022-07-10T03:48:29;7.30;;;6.60;;
64031;SDS011;50278;47.796;11.968;2022-07-10T03:50:55;7.75;;;6.38;;
64031;SDS011;50278;47.796;11.968;2022-07-10T03:53:20;7.35;;;6.65;;
64031;SDS011;50278;47.796;11.968;2022-07-10T03:55:46;6.70;;;6.13;;
64031;SDS011;50278;47.796;11.968;2022-07-10T03:58:11;7.13;;;6.43;;
64031;SDS011;50278;47.796;11.968;2022-07-10T04:00:37;6.15;;;5.55;;
64031;SDS011;50278;47.796;11.968;2022-07-10T04:03:06;6.65;;;6.03;;
64031;SDS011;50278;47.796;11.968;2022-07-10T04:05:32;6.40;;;5.63;;
64031;SDS011;50278;47.796;11.968;2022-07-10T04:07:59;7.63;;;6.20;;
64031;SDS011;50278;47.796;11.968;2022-07-10T04:10:26;6.32;;;5.72;;
64031;SDS011;50278;47.796;11.968;2022-07-10T04:12:52;7.15;;;5.55;;
64031;SDS011;50278;47.796;11.968;2022-07-10T04:15:18;6.70;;;5.32;;
64031;SDS011;50278;47.796;11.968;2022-07-10T04:17:45;6.70;;;5.28;;
64031;SDS011;50278;47.796;11.968;2022-07-10T04:20:11;5.78;;;5.28;;
64031;SDS011;50278;47.796;11.968;2022-07-10T04:22:37;5.45;;;4.93;;
64031;SDS011;50278;47.796;11.968;2022-07-10T04:25:03;5.10;;;4.63;;
64031;SDS011;50278;47.796;11.968;2022-07-10T04:27:29;6.20;;;5.10;;
64031;SDS011;50278;47.796;11.968;2022-07-10T04:29:54;4.93;;;4.53;;
64031;SDS011;50278;47.796;11.968;2022-07-10T04:32:20;7.15;;;6.45;;
64031;SDS011;50278;47.796;11.968;2022-07-10T04:34:46;5.47;;;5.07;;
64031;SDS011;50278;47.796;11.968;2022-07-10T04:37:11;5.78;;;5.28;;
64031;SDS011;50278;47.796;11.968;2022-07-10T04:39:37;6.57;;;5.40;;
64031;SDS011;50278;47.796;11.968;2022-07-10T04:42:04;5.97;;;5.38;;
64031;SDS011;50278;47.796;11.968;2022-07-10T04:44:30;5.53;;;5.03;;
64031;SDS011;50278;47.796;11.968;2022-07-10T04:46:56;5.50;;;5.00;;
64031;SDS011;50278;47.796;11.968;2022-07-10T04:49:21;6.82;;;6.22;;
64031;SDS011;50278;47.796;11.968;2022-07-10T04:51:47;5.15;;;4.65;;
64031;SDS011;50278;47.796;11.968;2022-07-10T04:54:13;5.57;;;5.07;;
64031;SDS011;50278;47.796;11.968;2022-07-10T04:56:38;4.90;;;4.50;;
64031;SDS011;50278;47.796;11.968;2022-07-10T04:59:04;6.78;;;4.82;;
64031;SDS011;50278;47.796;11.968;2022-07-10T05:01:29;9.45;;;7.50;;
64031;SDS011;50278;47.796;11.968;2022-07-10T05:03:55;6.07;;;4.63;;
64031;SDS011;50278;47.796;11.968;2022-07-10T05:06:20;5.35;;;4.85;;
64031;SDS011;50278;47.796;11.968;2022-07-10T05:08:46;4.60;;;4.20;;
64031;SDS011;50278;47.796;11.968;2022-07-10T05:11:11;4.38;;;4.00;;
64031;SDS011;50278;47.796;11.968;2022-07-10T05:13:36;5.57;;;4.05;;
64031;SDS011;50278;47.796;11.968;2022-07-10T05:16:02;4.57;;;4.18;;
64031;SDS011;50278;47.796;11.968;2022-07-10T05:18:29;5.25;;;4.75;;
64031;SDS011;50278;47.796;11.968;2022-07-10T05:20:54;4.93;;;4.53;;
64031;SDS011;50278;47.796;11.968;2022-07-10T05:23:20;5.05;;;4.65;;
64031;SDS011;50278;47.796;11.968;2022-07-10T05:25:45;5.03;;;4.53;;
64031;SDS011;50278;47.796;11.968;2022-07-10T05:28:11;5.35;;;4.40;;
64031;SDS011;50278;47.796;11.968;2022-07-10T05:30:39;5.47;;;4.20;;
64031;SDS011;50278;47.796;11.968;2022-07-10T05:33:05;4.50;;;4.20;;
64031;SDS011;50278;47.796;11.968;2022-07-10T05:35:30;6.18;;;4.25;;
64031;SDS011;50278;47.796;11.968;2022-07-10T05:37:56;8.38;;;5.20;;
64031;SDS011;50278;47.796;11.968;2022-07-10T05:40:21;4.70;;;4.30;;
64031;SDS011;50278;47.796;11.968;2022-07-10T05:42:47;4.75;;;4.35;;
64031;SDS011;50278;47.796;11.968;2022-07-10T05:45:12;5.13;;;4.65;;
64031;SDS011;50278;47.796;11.968;2022-07-10T05:47:38;4.45;;;4.05;;
64031;SDS011;50278;47.796;11.968;2022-07-10T05:50:03;4.70;;;4.30;;
64031;SDS011;50278;47.796;11.968;2022-07-10T05:52:29;5.00;;;4.55;;
64031;SDS011;50278;47.796;11.968;2022-07-10T05:54:57;4.90;;;4.50;;
64031;SDS011;50278;47.796;11.968;2022-07-10T05:57:23;5.55;;;5.05;;
64031;SDS011;50278;47.796;11.968;2022-07-10T05:59:49;4.45;;;4.05;;
64031;SDS011;50278;47.796;11.968;2022-07-10T06:02:15;4.97;;;4.55;;
64031;SDS011;50278;47.796;11.968;2022-07-10T06:04:41;5.25;;;4.75;;
64031;SDS011;50278;47.796;11.968;2022-07-10T06:07:07;5.32;;;4.65;;
64031;SDS011;50278;47.796;11.968;2022-07-10T06:09:32;4.75;;;4.35;;
64031;SDS011;50278;47.796;11.968;2022-07-10T06:11:58;5.20;;;4.72;;
64031;SDS011;50278;47.796;11.968;2022-07-10T06:14:23;5.10;;;4.60;;
64031;SDS011;50278;47.796;11.968;2022-07-10T06:16:49;5.85;;;5.28;;
64031;SDS011;50278;47.796;11.968;2022-07-10T06:19:14;6.22;;;5.40;;
64031;SDS011;50278;47.796;11.968;2022-07-10T06:21:42;4.45;;;4.05;;
64031;SDS011;50278;47.796;11.968;2022-07-10T06:24:08;5.38;;;4.88;;
64031;SDS011;50278;47.796;11.968;2022-07-10T06:26:33;4.65;;;4.18;;
64031;SDS011;50278;47.796;11.968;2022-07-10T06:28:59;5.18;;;4.18;;
64031;SDS011;50278;47.796;11.968;2022-07-10T06:31:24;3.88;;;3.58;;
64031;SDS011;50278;47.796;11.968;2022-07-10T06:33:50;4.22;;;3.83;;
64031;SDS011;50278;47.796;11.968;2022-07-10T06:36:15;4.00;;;3.60;;
64031;SDS011;50278;47.796;11.968;2022-07-10T06:38:41;4.72;;;3.30;;
64031;SDS011;50278;47.796;11.968;2022-07-10T06:41:06;4.57;;;3.60;;
64031;SDS011;50278;47.796;11.968;2022-07-10T06:43:31;4.63;;;3.60;;
64031;SDS011;50278;47.796;11.968;2022-07-10T06:45:57;3.83;;;3.40;;
64031;SDS011;50278;47.796;11.968;2022-07-10T06:48:23;4.05;;;3.75;;
64031;SDS011;50278;47.796;11.968;2022-07-10T06:50:51;4.95;;;3.13;;
64031;SDS011;50278;47.796;11.968;2022-07-10T06:53:17;3.72;;;3.22;;
64031;SDS011;50278;47.796;11.968;2022-07-10T06:55:42;3.80;;;3.35;;
64031;SDS011;50278;47.796;11.968;2022-07-10T06:58:08;3.67;;;3.38;;
64031;SDS011;50278;47.796;11.968;2022-07-10T07:00:33;3.88;;;3.22;;
64031;SDS011;50278;47.796;11.968;2022-07-10T07:02:59;3.72;;;3.42;;
64031;SDS011;50278;47.796;11.968;2022-07-10T07:05:24;4.20;;;3.83;;
64031;SDS011;50278;47.796;11.968;2022-07-10T07:07:50;4.15;;;3.80;;
64031;SDS011;50278;47.796;11.968;2022-07-10T07:10:15;4.00;;;3.60;;
64031;SDS011;50278;47.796;11.968;2022-07-10T07:12:41;4.30;;;3.90;;
64031;SDS011;50278;47.796;11.968;2022-07-10T07:15:07;4.43;;;4.00;;
64031;SDS011;50278;47.796;11.968;2022-07-10T07:17:33;4.30;;;3.90;;
64031;SDS011;50278;47.796;11.968;2022-07-10T07:20:21;4.55;;;3.88;;
64031;SDS011;50278;47.796;11.968;2022-07-10T07:23:11;4.30;;;3.90;;
64031;SDS011;50278;47.796;11.968;2022-07-10T07:25:39;3.72;;;3.42;;
64031;SDS011;50278;47.796;11.968;2022-07-10T07:28:11;5.30;;;3.88;;
64031;SDS011;50278;47.796;11.968;2022-07-10T07:30:37;5.75;;;5.10;;
64031;SDS011;50278;47.796;11.968;2022-07-10T07:33:03;4.43;;;4.03;;
64031;SDS011;50278;47.796;11.968;2022-07-10T07:35:28;6.82;;;6.13;;
64031;SDS011;50278;47.796;11.968;2022-07-10T07:37:53;6.72;;;5.63;;
64031;SDS011;50278;47.796;11.968;2022-07-10T07:40:20;3.90;;;3.60;;
64031;SDS011;50278;47.796;11.968;2022-07-10T07:42:50;4.63;;;3.20;;
64031;SDS011;50278;47.796;11.968;2022-07-10T07:45:16;4.03;;;3.72;;
64031;SDS011;50278;47.796;11.968;2022-07-10T07:47:46;3.65;;;3.33;;
64031;SDS011;50278;47.796;11.968;2022-07-10T07:50:19;3.88;;;3.50;;
64031;SDS011;50278;47.796;11.968;2022-07-10T07:52:46;4.95;;;3.83;;
64031;SDS011;50278;47.796;11.968;2022-07-10T07:55:12;4.95;;;3.70;;
64031;SDS011;50278;47.796;11.968;2022-07-10T07:57:40;6.15;;;3.97;;
64031;SDS011;50278;47.796;11.968;2022-07-10T08:00:06;5.53;;;5.00;;
64031;SDS011;50278;47.796;11.968;2022-07-10T08:02:37;3.90;;;3.40;;
64031;SDS011;50278;47.796;11.968;2022-07-10T08:05:03;3.97;;;3.63;;
64031;SDS011;50278;47.796;11.968;2022-07-10T08:08:12;4.00;;;3.60;;
64031;SDS011;50278;47.796;11.968;2022-07-10T08:10:20;3.67;;;3.20;;
64031;SDS011;50278;47.796;11.968;2022-07-10T08:12:47;3.55;;;3.20;;
64031;SDS011;50278;47.796;11.968;2022-07-10T08:15:16;3.47;;;3.17;;
64031;SDS011;50278;47.796;11.968;2022-07-10T08:17:49;3.42;;;3.05;;
64031;SDS011;50278;47.796;11.968;2022-07-10T08:20:16;8.25;;;7.45;;
64031;SDS011;50278;47.796;11.968;2022-07-10T08:22:42;3.22;;;2.92;;
64031;SDS011;50278;47.796;11.968;2022-07-10T08:25:09;3.50;;;3.20;;
64031;SDS011;50278;47.796;11.968;2022-07-10T08:27:35;3.28;;;2.97;;
64031;SDS011;50278;47.796;11.968;2022-07-10T08:30:01;4.25;;;3.67;;
64031;SDS011;50278;47.796;11.968;2022-07-10T08:32:26;3.10;;;2.80;;
64031;SDS011;50278;47.796;11.968;2022-07-10T08:34:52;2.55;;;2.35;;
64031;SDS011;50278;47.796;11.968;2022-07-10T08:37:18;2.80;;;2.60;;
64031;SDS011;50278;47.796;11.968;2022-07-10T08:39:47;4.05;;;3.20;;
64031;SDS011;50278;47.796;11.968;2022-07-10T08:42:13;3.22;;;2.92;;
64031;SDS011;50278;47.796;11.968;2022-07-10T08:44:40;3.10;;;2.85;;
64031;SDS011;50278;47.796;11.968;2022-07-10T08:47:06;3.45;;;2.67;;
64031;SDS011;50278;47.796;11.968;2022-07-10T08:49:32;3.00;;;2.80;;
64031;SDS011;50278;47.796;11.968;2022-07-10T08:52:11;2.53;;;2.33;;
64031;SDS011;50278;47.796;11.968;2022-07-10T08:54:46;3.42;;;2.58;;
64031;SDS011;50278;47.796;11.968;2022-07-10T08:57:11;3.83;;;2.55;;
64031;SDS011;50278;47.796;11.968;2022-07-10T08:59:37;3.30;;;2.28;;
64031;SDS011;50278;47.796;11.968;2022-07-10T09:02:03;3.95;;;2.53;;
64031;SDS011;50278;47.796;11.968;2022-07-10T09:04:28;2.65;;;2.40;;
64031;SDS011;50278;47.796;11.968;2022-07-10T09:06:54;2.45;;;2.00;;
64031;SDS011;50278;47.796;11.968;2022-07-10T09:09:20;3.15;;;2.20;;
64031;SDS011;50278;47.796;11.968;2022-07-10T09:11:47;2.42;;;2.00;;
64031;SDS011;50278;47.796;11.968;2022-07-10T09:14:16;2.55;;;2.05;;
64031;SDS011;50278;47.796;11.968;2022-07-10T09:16:43;2.75;;;1.90;;
64031;SDS011;50278;47.796;11.968;2022-07-10T09:19:27;2.92;;;2.47;;
64031;SDS011;50278;47.796;11.968;2022-07-10T09:21:54;2.35;;;2.10;;
64031;SDS011;50278;47.796;11.968;2022-07-10T09:27:02;2.75;;;2.42;;
64031;SDS011;50278;47.796;11.968;2022-07-10T09:29:29;2.88;;;1.88;;
64031;SDS011;50278;47.796;11.968;2022-07-10T09:31:56;4.10;;;2.60;;
64031;SDS011;50278;47.796;11.968;2022-07-10T09:34:38;2.85;;;2.10;;
64031;SDS011;50278;47.796;11.968;2022-07-10T09:37:21;2.38;;;2.17;;
64031;SDS011;50278;47.796;11.968;2022-07-10T09:47:37;1.95;;;1.80;;
64031;SDS011;50278;47.796;11.968;2022-07-10T09:50:51;4.93;;;1.95;;
64031;SDS011;50278;47.796;11.968;2022-07-10T09:52:59;3.30;;;2.13;;
64031;SDS011;50278;47.796;11.968;2022-07-10T09:55:30;2.13;;;1.75;;
64031;SDS011;50278;47.796;11.968;2022-07-10T10:00:27;2.70;;;2.00;;
64031;SDS011;50278;47.796;11.968;2022-07-10T10:02:58;2.55;;;1.73;;
64031;SDS011;50278;47.796;11.968;2022-07-10T10:08:20;2.80;;;2.35;;
64031;SDS011;50278;47.796;11.968;2022-07-10T10:10:50;2.45;;;1.60;;
64031;SDS011;50278;47.796;11.968;2022-07-10T10:13:25;3.47;;;1.60;;
64031;SDS011;50278;47.796;11.968;2022-07-10T10:15:55;3.42;;;1.38;;
64031;SDS011;50278;47.796;11.968;2022-07-10T10:18:22;2.55;;;1.45;;
64031;SDS011;50278;47.796;11.968;2022-07-10T10:20:49;3.55;;;2.38;;
64031;SDS011;50278;47.796;11.968;2022-07-10T10:23:18;1.52;;;1.40;;
64031;SDS011;50278;47.796;11.968;2022-07-10T10:25:48;2.67;;;1.10;;
64031;SDS011;50278;47.796;11.968;2022-07-10T10:28:14;1.88;;;1.60;;
64031;SDS011;50278;47.796;11.968;2022-07-10T10:30:43;6.47;;;4.75;;
64031;SDS011;50278;47.796;11.968;2022-07-10T10:35:57;1.73;;;1.33;;
64031;SDS011;50278;47.796;11.968;2022-07-10T10:38:24;2.63;;;1.50;;
64031;SDS011;50278;47.796;11.968;2022-07-10T10:40:50;4.25;;;1.40;;
64031;SDS011;50278;47.796;11.968;2022-07-10T10:43:16;3.50;;;1.35;;
64031;SDS011;50278;47.796;11.968;2022-07-10T10:45:49;1.70;;;1.30;;
64031;SDS011;50278;47.796;11.968;2022-07-10T10:48:18;1.42;;;0.93;;
64031;SDS011;50278;47.796;11.968;2022-07-10T10:50:53;2.30;;;1.35;;
64031;SDS011;50278;47.796;11.968;2022-07-10T10:53:20;2.35;;;1.20;;
64031;SDS011;50278;47.796;11.968;2022-07-10T10:56:21;3.58;;;1.35;;
64031;SDS011;50278;47.796;11.968;2022-07-10T11:01:23;3.40;;;1.30;;
64031;SDS011;50278;47.796;11.968;2022-07-10T11:06:47;1.73;;;1.00;;
64031;SDS011;50278;47.796;11.968;2022-07-10T11:09:30;2.25;;;1.27;;
64031;SDS011;50278;47.796;11.968;2022-07-10T11:12:06;1.30;;;0.98;;
64031;SDS011;50278;47.796;11.968;2022-07-10T11:14:34;2.03;;;1.13;;
64031;SDS011;50278;47.796;11.968;2022-07-10T11:17:02;2.10;;;1.10;;
64031;SDS011;50278;47.796;11.968;2022-07-10T11:19:29;2.95;;;1.30;;
64031;SDS011;50278;47.796;11.968;2022-07-10T11:25:01;1.50;;;1.00;;
64031;SDS011;50278;47.796;11.968;2022-07-10T11:30:53;3.13;;;1.05;;
64031;SDS011;50278;47.796;11.968;2022-07-10T11:33:20;2.20;;;1.05;;
64031;SDS011;50278;47.796;11.968;2022-07-10T11:35:46;2.67;;;1.30;;
64031;SDS011;50278;47.796;11.968;2022-07-10T11:38:18;1.58;;;0.93;;
64031;SDS011;50278;47.796;11.968;2022-07-10T11:40:48;2.10;;;1.00;;
64031;SDS011;50278;47.796;11.968;2022-07-10T11:43:13;3.38;;;1.10;;
64031;SDS011;50278;47.796;11.968;2022-07-10T11:45:42;4.05;;;1.00;;
64031;SDS011;50278;47.796;11.968;2022-07-10T11:48:15;4.28;;;1.25;;
64031;SDS011;50278;47.796;11.968;2022-07-10T11:50:42;1.98;;;1.00;;
64031;SDS011;50278;47.796;11.968;2022-07-10T11:53:09;2.85;;;1.08;;
64031;SDS011;50278;47.796;11.968;2022-07-10T11:55:34;1.98;;;1.15;;
64031;SDS011;50278;47.796;11.968;2022-07-10T11:58:15;3.90;;;1.35;;
